createdAt,value
2023-01-11T00:00:18.854Z,8.60
2023-01-11T00:02:49.774Z,8.35
2023-01-11T00:05:19.883Z,8.85
2023-01-11T00:07:50.204Z,11.35
2023-01-11T00:10:21.657Z,10.93
2023-01-11T00:12:52.154Z,9.38
2023-01-11T00:15:22.275Z,13.00
2023-01-11T00:17:52.663Z,10.38
2023-01-11T00:20:22.885Z,9.20
2023-01-11T00:22:53.415Z,8.88
2023-01-11T00:25:23.655Z,6.75
2023-01-11T00:27:54.028Z,9.25
2023-01-11T00:30:24.489Z,7.22
2023-01-11T00:33:03.656Z,8.75
2023-01-11T00:35:49.024Z,8.02
2023-01-11T00:38:54.214Z,7.72
2023-01-11T00:41:52.687Z,5.57
2023-01-11T00:44:44.650Z,4.85
2023-01-11T00:47:39.347Z,4.57
2023-01-11T00:50:10.386Z,9.05
2023-01-11T00:52:40.678Z,9.88
2023-01-11T00:55:13.322Z,6.53
2023-01-11T00:57:44.272Z,6.63
2023-01-11T01:00:15.253Z,4.95
2023-01-11T01:02:46.652Z,5.93
2023-01-11T01:05:19.916Z,5.93
2023-01-11T01:07:52.986Z,3.92
2023-01-11T01:10:23.778Z,3.03
2023-01-11T01:13:12.736Z,4.88
2023-01-11T01:15:44.834Z,5.53
2023-01-11T01:18:20.017Z,5.07
2023-01-11T01:20:55.491Z,4.25
2023-01-11T01:23:27.560Z,6.00
2023-01-11T01:25:58.900Z,4.40
2023-01-11T01:28:29.464Z,3.83
2023-01-11T01:30:59.974Z,4.40
2023-01-11T01:33:30.299Z,6.28
2023-01-11T01:36:02.403Z,3.33
2023-01-11T01:38:33.012Z,3.75
2023-01-11T01:41:04.172Z,5.15
2023-01-11T01:43:55.142Z,5.13
2023-01-11T01:46:29.736Z,4.50
2023-01-11T01:49:20.226Z,2.47
2023-01-11T01:51:59.844Z,2.35
2023-01-11T01:54:35.384Z,1.55
2023-01-11T01:57:12.626Z,2.72
2023-01-11T01:59:43.373Z,1.27
2023-01-11T02:02:15.154Z,2.45
2023-01-11T02:04:55.697Z,3.85
2023-01-11T02:07:41.482Z,1.38
2023-01-11T02:10:55.993Z,3.15
2023-01-11T02:13:49.424Z,2.33
2023-01-11T02:16:44.845Z,1.92
2023-01-11T02:19:40.644Z,1.73
2023-01-11T02:22:24.711Z,72.90
2023-01-11T02:25:06.791Z,60.50
2023-01-11T02:28:04.660Z,51.28
2023-01-11T02:30:54.272Z,57.63
2023-01-11T02:33:50.103Z,46.42
2023-01-11T02:36:45.142Z,55.58
2023-01-11T02:39:35.570Z,96.55
2023-01-11T02:42:45.938Z,100.88
2023-01-11T02:45:34.258Z,56.78
2023-01-11T02:48:37.506Z,34.08
2023-01-11T02:51:50.750Z,8.48
2023-01-11T02:54:34.272Z,2.10
2023-01-11T02:57:10.439Z,10.10
2023-01-11T02:59:52.468Z,10.77
2023-01-11T03:02:23.943Z,8.48
2023-01-11T03:04:54.679Z,6.57
2023-01-11T03:07:50.354Z,6.40
2023-01-11T03:10:58.569Z,5.15
2023-01-11T03:14:00.683Z,7.53
2023-01-11T03:17:00.018Z,2.85
2023-01-11T03:19:53.986Z,9.65
2023-01-11T03:22:39.950Z,49.30
2023-01-11T03:25:33.511Z,90.90
2023-01-11T03:28:29.367Z,80.80
2023-01-11T03:31:28.951Z,62.15
2023-01-11T03:34:13.855Z,54.35
2023-01-11T03:36:50.645Z,62.70
2023-01-11T03:39:30.708Z,68.10
2023-01-11T03:42:10.888Z,52.35
2023-01-11T03:44:47.385Z,48.60
2023-01-11T03:47:20.807Z,51.10
2023-01-11T03:50:12.358Z,44.28
2023-01-11T03:52:45.003Z,52.10
2023-01-11T03:55:19.186Z,60.55
2023-01-11T03:57:52.797Z,63.60
2023-01-11T04:00:24.463Z,72.25
2023-01-11T04:02:57.674Z,62.95
2023-01-11T04:05:27.926Z,59.58
2023-01-11T04:07:57.996Z,28.70
2023-01-11T04:10:28.162Z,18.60
2023-01-11T04:12:58.372Z,8.65
2023-01-11T04:15:28.865Z,8.30
2023-01-11T04:18:06.187Z,6.38
2023-01-11T04:20:39.421Z,4.15
2023-01-11T04:23:11.632Z,2.92
2023-01-11T04:25:42.942Z,3.80
2023-01-11T04:28:13.139Z,4.63
2023-01-11T04:30:43.279Z,86.10
2023-01-11T04:33:14.430Z,83.57
2023-01-11T04:35:45.842Z,127.22
2023-01-11T04:38:18.317Z,54.10
2023-01-11T04:40:49.807Z,91.32
2023-01-11T04:43:20.222Z,112.40
2023-01-11T04:45:50.777Z,62.42
2023-01-11T04:48:20.895Z,30.42
2023-01-11T04:50:51.144Z,26.52
2023-01-11T04:53:21.463Z,20.52
2023-01-11T04:55:51.427Z,20.48
2023-01-11T04:58:22.784Z,20.75
2023-01-11T05:00:52.904Z,153.13
2023-01-11T05:03:22.903Z,136.32
2023-01-11T05:06:02.669Z,76.22
2023-01-11T05:08:33.041Z,139.35
2023-01-11T05:11:07.566Z,128.15
2023-01-11T05:13:43.390Z,91.10
2023-01-11T05:16:20.834Z,112.10
2023-01-11T05:19:01.801Z,103.65
2023-01-11T05:21:37.503Z,87.75
2023-01-11T05:24:17.190Z,82.85
2023-01-11T05:26:49.576Z,75.88
2023-01-11T05:29:21.940Z,69.68
2023-01-11T05:31:52.301Z,87.65
2023-01-11T05:34:22.880Z,93.32
2023-01-11T05:36:54.545Z,85.90
2023-01-11T05:39:25.068Z,210.90
2023-01-11T05:41:55.224Z,228.57
2023-01-11T05:44:43.564Z,176.00
2023-01-11T05:47:13.722Z,232.88
2023-01-11T05:49:43.764Z,220.90
2023-01-11T05:52:13.964Z,249.90
2023-01-11T05:54:43.968Z,228.75
2023-01-11T05:57:14.155Z,218.95
2023-01-11T05:59:44.094Z,180.68
2023-01-11T06:02:14.404Z,226.32
2023-01-11T06:04:44.476Z,203.40
2023-01-11T06:07:14.607Z,195.82
2023-01-11T06:09:44.686Z,160.52
2023-01-11T06:12:14.843Z,118.55
2023-01-11T06:14:44.821Z,88.95
2023-01-11T06:17:14.958Z,58.20
2023-01-11T06:19:44.951Z,54.28
2023-01-11T06:22:15.088Z,53.90
2023-01-11T06:24:45.101Z,59.05
2023-01-11T06:27:15.242Z,41.00
2023-01-11T06:29:45.281Z,46.22
2023-01-11T06:32:15.399Z,32.38
2023-01-11T06:34:45.337Z,37.17
2023-01-11T06:37:15.696Z,37.03
2023-01-11T06:39:45.626Z,42.00
2023-01-11T06:42:15.837Z,26.90
2023-01-11T06:44:45.824Z,31.05
2023-01-11T06:47:16.181Z,25.85
2023-01-11T06:49:46.265Z,27.27
2023-01-11T06:52:16.408Z,19.00
2023-01-11T06:54:46.396Z,19.02
2023-01-11T06:57:16.588Z,16.58
2023-01-11T06:59:46.513Z,14.82
2023-01-11T07:02:16.763Z,10.40
2023-01-11T07:04:46.837Z,12.82
2023-01-11T07:07:17.039Z,9.63
2023-01-11T07:09:47.012Z,6.40
2023-01-11T07:12:17.199Z,7.10
2023-01-11T07:14:47.116Z,8.13
2023-01-11T07:17:17.317Z,4.93
2023-01-11T07:19:47.288Z,6.20
2023-01-11T07:22:17.438Z,3.67
2023-01-11T07:24:48.526Z,6.00
2023-01-11T07:27:18.888Z,5.18
2023-01-11T07:29:49.170Z,3.90
2023-01-11T07:32:19.272Z,6.25
2023-01-11T07:34:49.229Z,3.40
2023-01-11T07:37:29.112Z,3.80
2023-01-11T07:39:59.824Z,4.97
2023-01-11T07:42:48.091Z,4.70
2023-01-11T07:45:18.653Z,3.15
2023-01-11T07:47:53.215Z,3.00
2023-01-11T07:50:23.579Z,4.65
2023-01-11T07:52:53.499Z,3.63
2023-01-11T07:55:23.994Z,2.53
2023-01-11T07:57:57.524Z,2.40
2023-01-11T08:00:27.923Z,2.45
2023-01-11T08:03:23.865Z,2.47
2023-01-11T08:05:55.342Z,2.17
2023-01-11T08:08:28.614Z,3.65
2023-01-11T08:11:16.970Z,3.10
2023-01-11T08:14:05.515Z,8.32
2023-01-11T08:16:35.646Z,3.03
2023-01-11T08:19:06.614Z,2.10
2023-01-11T08:21:36.960Z,4.95
2023-01-11T08:24:08.345Z,2.85
2023-01-11T08:26:38.738Z,3.58
2023-01-11T08:29:08.981Z,5.65
2023-01-11T08:31:39.504Z,6.25
2023-01-11T08:34:10.381Z,2.70
2023-01-11T08:36:41.160Z,6.25
2023-01-11T08:39:12.212Z,7.70
2023-01-11T08:41:42.634Z,5.00
2023-01-11T08:44:14.831Z,3.83
2023-01-11T08:46:45.887Z,4.50
2023-01-11T08:49:16.367Z,4.68
2023-01-11T08:51:46.370Z,4.55
2023-01-11T08:54:18.713Z,2.03
2023-01-11T08:56:48.824Z,5.43
2023-01-11T08:59:20.968Z,5.40
2023-01-11T09:01:51.394Z,3.80
2023-01-11T09:04:25.213Z,3.50
2023-01-11T09:06:56.135Z,3.28
2023-01-11T09:09:26.301Z,2.88
2023-01-11T09:11:58.340Z,3.08
2023-01-11T09:14:30.640Z,3.15
2023-01-11T09:17:01.043Z,4.30
2023-01-11T09:19:31.460Z,5.43
2023-01-11T09:22:04.229Z,4.07
2023-01-11T09:24:34.486Z,5.28
2023-01-11T09:27:05.990Z,5.20
2023-01-11T09:29:37.528Z,4.40
2023-01-11T09:32:08.091Z,5.00
2023-01-11T09:34:38.135Z,4.68
2023-01-11T09:37:08.363Z,9.00
2023-01-11T09:39:40.523Z,4.22
2023-01-11T09:42:40.820Z,5.30
2023-01-11T09:47:52.479Z,3.53
2023-01-11T09:50:27.119Z,2.13
2023-01-11T09:53:10.436Z,6.28
2023-01-11T09:55:53.258Z,2.35
2023-01-11T09:58:54.653Z,4.85
2023-01-11T10:02:00.879Z,6.28
2023-01-11T10:05:10.923Z,9.02
2023-01-11T10:18:29.104Z,6.93
2023-01-11T10:18:31.654Z,6.25
2023-01-11T10:20:44.979Z,6.28
2023-01-11T10:23:26.596Z,6.80
2023-01-11T10:28:48.231Z,7.43
2023-01-11T10:31:45.999Z,3.72
2023-01-11T10:34:44.175Z,8.20
2023-01-11T10:37:27.323Z,60.85
2023-01-11T10:40:22.785Z,50.83
2023-01-11T10:43:17.986Z,24.92
2023-01-11T10:45:55.945Z,50.97
2023-01-11T10:48:40.234Z,111.43
2023-01-11T10:51:30.577Z,68.53
2023-01-11T10:54:28.171Z,69.13
2023-01-11T10:57:30.268Z,87.68
2023-01-11T11:00:10.070Z,52.17
2023-01-11T11:02:49.411Z,65.10
2023-01-11T11:05:35.152Z,72.22
2023-01-11T11:08:34.938Z,49.58
2023-01-11T11:11:15.245Z,71.45
2023-01-11T11:14:08.093Z,61.38
2023-01-11T11:16:49.373Z,40.05
2023-01-11T11:19:24.990Z,87.00
2023-01-11T11:21:56.829Z,60.67
2023-01-11T11:24:49.988Z,50.22
2023-01-11T11:27:34.684Z,45.67
2023-01-11T11:30:05.671Z,60.15
2023-01-11T11:32:41.425Z,44.05
2023-01-11T11:35:42.138Z,45.42
2023-01-11T11:38:24.704Z,61.53
2023-01-11T11:41:06.617Z,42.97
2023-01-11T11:43:48.408Z,42.88
2023-01-11T11:46:20.565Z,48.28
2023-01-11T11:49:14.359Z,46.60
2023-01-11T11:51:47.091Z,39.55
2023-01-11T11:54:34.444Z,68.72
2023-01-11T11:57:23.261Z,35.78
2023-01-11T12:00:04.750Z,32.85
2023-01-11T12:02:37.658Z,54.08
2023-01-11T12:05:11.419Z,54.53
2023-01-11T12:07:55.177Z,25.15
2023-01-11T12:10:31.600Z,40.33
2023-01-11T12:13:06.518Z,24.77
2023-01-11T12:15:37.096Z,24.38
2023-01-11T12:18:39.303Z,26.52
2023-01-11T12:25:07.845Z,34.97
2023-01-11T12:28:02.959Z,45.80
2023-01-11T12:30:54.422Z,28.05
2023-01-11T12:33:24.740Z,40.50
2023-01-11T12:35:54.834Z,51.22
2023-01-11T12:39:01.851Z,59.03
2023-01-11T12:41:59.862Z,51.22
2023-01-11T12:44:42.783Z,47.42
2023-01-11T12:47:41.533Z,66.20
2023-01-11T12:50:21.046Z,47.83
2023-01-11T12:53:02.732Z,45.15
2023-01-11T12:56:16.906Z,48.75
2023-01-11T12:58:59.700Z,46.35
2023-01-11T13:02:01.751Z,41.15
2023-01-11T13:04:53.051Z,47.70
2023-01-11T13:07:50.931Z,40.92
2023-01-11T13:10:38.434Z,54.17
2023-01-11T13:16:21.593Z,34.10
2023-01-11T13:19:08.830Z,41.47
2023-01-11T13:21:54.401Z,48.47
2023-01-11T13:24:27.723Z,33.13
2023-01-11T13:27:07.335Z,55.10
2023-01-11T13:29:42.042Z,33.78
2023-01-11T13:32:24.693Z,39.25
2023-01-11T13:35:05.207Z,34.25
2023-01-11T13:38:03.079Z,28.70
2023-01-11T13:40:47.810Z,27.75
2023-01-11T13:43:48.324Z,31.65
2023-01-11T13:46:49.195Z,67.60
2023-01-11T13:49:56.039Z,35.95
2023-01-11T13:53:11.276Z,42.53
2023-01-11T13:55:59.423Z,43.42
2023-01-11T13:58:50.715Z,29.77
2023-01-11T14:01:33.929Z,30.77
2023-01-11T14:04:23.967Z,39.20
2023-01-11T14:07:21.106Z,25.33
2023-01-11T14:09:57.109Z,46.22
2023-01-11T14:13:02.638Z,48.28
2023-01-11T14:15:54.981Z,55.28
2023-01-11T14:18:49.406Z,35.75
2023-01-11T14:21:36.197Z,35.78
2023-01-11T14:24:07.950Z,36.25
2023-01-11T14:26:50.545Z,25.27
2023-01-11T14:29:39.379Z,29.20
2023-01-11T14:32:35.475Z,28.67
2023-01-11T14:35:24.102Z,26.20
2023-01-11T14:38:16.398Z,24.80
2023-01-11T14:40:57.103Z,32.08
2023-01-11T14:44:04.562Z,22.10
2023-01-11T14:46:54.155Z,37.28
2023-01-11T14:49:44.787Z,27.15
2023-01-11T14:52:38.119Z,28.42
2023-01-11T14:55:33.409Z,34.00
2023-01-11T14:58:35.419Z,22.25
2023-01-11T15:01:11.266Z,28.20
2023-01-11T15:03:46.540Z,22.13
2023-01-11T15:06:21.530Z,30.65
2023-01-11T15:08:55.401Z,36.88
2023-01-11T15:11:36.396Z,26.23
2023-01-11T15:14:09.984Z,25.25
2023-01-11T15:16:59.499Z,21.85
2023-01-11T15:19:38.910Z,18.08
2023-01-11T15:22:21.214Z,25.42
2023-01-11T15:24:59.729Z,9.60
2023-01-11T15:27:39.732Z,27.52
2023-01-11T15:30:32.613Z,44.03
2023-01-11T15:33:29.332Z,24.52
2023-01-11T15:35:59.444Z,36.70
2023-01-11T15:38:36.459Z,17.98
2023-01-11T15:41:38.491Z,31.67
2023-01-11T15:44:17.410Z,30.10
2023-01-11T15:47:24.131Z,28.10
2023-01-11T15:50:24.829Z,29.23
2023-01-11T15:53:24.496Z,16.88
2023-01-11T15:56:18.132Z,38.92
2023-01-11T15:58:53.644Z,23.50
2023-01-11T16:01:30.266Z,16.58
2023-01-11T16:04:03.551Z,36.83
2023-01-11T16:06:52.075Z,23.33
2023-01-11T16:09:42.400Z,19.92
2023-01-11T16:12:23.668Z,81.38
2023-01-11T16:17:27.948Z,38.67
2023-01-11T16:19:58.200Z,21.52
2023-01-11T16:22:29.961Z,39.22
2023-01-11T16:25:03.503Z,25.13
2023-01-11T16:27:36.932Z,23.38
2023-01-11T16:30:08.600Z,27.25
2023-01-11T16:32:38.919Z,18.60
2023-01-11T16:35:20.301Z,21.13
2023-01-11T16:37:54.988Z,21.20
2023-01-11T16:40:31.218Z,33.97
2023-01-11T16:43:29.277Z,33.83
2023-01-11T16:45:59.669Z,15.63
2023-01-11T16:48:31.606Z,29.23
2023-01-11T16:51:15.559Z,27.63
2023-01-11T16:53:55.007Z,15.80
2023-01-11T16:56:25.953Z,32.25
2023-01-11T16:59:35.857Z,30.23
2023-01-11T17:02:25.798Z,28.48
2023-01-11T17:04:55.993Z,38.10
2023-01-11T17:07:29.907Z,24.33
2023-01-11T17:10:26.371Z,37.38
2023-01-11T17:13:54.569Z,20.20
2023-01-11T17:16:39.315Z,17.98
2023-01-11T17:19:21.815Z,27.95
2023-01-11T17:21:56.236Z,18.50
2023-01-11T17:24:28.190Z,50.88
2023-01-11T17:27:09.002Z,34.47
2023-01-11T17:29:43.981Z,13.10
2023-01-11T17:32:20.356Z,21.10
2023-01-11T17:34:53.085Z,33.40
2023-01-11T17:37:24.075Z,17.52
2023-01-11T17:40:26.054Z,24.23
2023-01-11T17:43:38.495Z,27.63
2023-01-11T17:46:24.286Z,22.70
2023-01-11T17:49:09.586Z,11.30
2023-01-11T17:51:42.992Z,53.00
2023-01-11T17:54:23.830Z,33.35
2023-01-11T17:57:00.588Z,23.15
2023-01-11T17:59:32.534Z,30.52
2023-01-11T18:02:06.267Z,33.50
2023-01-11T18:04:36.504Z,32.17
2023-01-11T18:07:15.158Z,31.15
2023-01-11T18:09:49.325Z,33.38
2023-01-11T18:12:27.536Z,23.85
2023-01-11T18:15:01.625Z,47.92
2023-01-11T18:17:37.923Z,23.75
2023-01-11T18:20:17.275Z,36.13
2023-01-11T18:23:04.838Z,31.65
2023-01-11T18:25:39.296Z,30.88
2023-01-11T18:28:31.340Z,30.27
2023-01-11T18:31:10.042Z,40.55
2023-01-11T18:33:43.412Z,29.67
2023-01-11T18:36:23.182Z,23.88
2023-01-11T18:38:54.147Z,24.70
2023-01-11T18:41:44.732Z,40.28
2023-01-11T18:44:17.437Z,31.08
2023-01-11T18:47:17.749Z,33.13
2023-01-11T18:49:48.603Z,34.13
2023-01-11T18:52:19.757Z,22.50
2023-01-11T18:54:52.381Z,43.28
2023-01-11T18:57:24.222Z,47.50
2023-01-11T18:59:54.418Z,36.03
2023-01-11T19:02:30.248Z,55.83
2023-01-11T19:05:00.549Z,48.38
2023-01-11T19:07:30.384Z,23.05
2023-01-11T19:10:00.577Z,40.50
2023-01-11T19:12:30.479Z,26.02
2023-01-11T19:15:00.715Z,39.58
2023-01-11T19:17:30.599Z,44.22
2023-01-11T19:20:00.777Z,35.03
2023-01-11T19:22:30.639Z,33.63
2023-01-11T19:25:00.973Z,30.65
2023-01-11T19:27:30.951Z,35.63
2023-01-11T19:30:08.562Z,41.63
2023-01-11T19:33:09.936Z,37.45
2023-01-11T19:35:53.471Z,26.30
2023-01-11T19:38:28.778Z,42.38
2023-01-11T19:41:05.858Z,41.50
2023-01-11T19:43:55.791Z,49.85
2023-01-11T19:46:47.068Z,34.03
2023-01-11T19:49:33.248Z,33.20
2023-01-11T19:52:42.790Z,49.00
2023-01-11T19:55:18.981Z,43.13
2023-01-11T19:57:52.770Z,50.88
2023-01-11T20:03:10.447Z,49.72
2023-01-11T20:05:51.204Z,23.88
2023-01-11T20:08:26.417Z,39.85
2023-01-11T20:11:07.628Z,48.28
2023-01-11T20:13:41.619Z,56.03
2023-01-11T20:16:19.723Z,48.35
2023-01-11T20:19:00.748Z,24.65
2023-01-11T20:21:36.175Z,32.20
2023-01-11T20:24:12.936Z,53.70
2023-01-11T20:26:46.882Z,24.90
2023-01-11T20:29:19.672Z,54.05
2023-01-11T20:32:41.753Z,37.95
2023-01-11T20:35:16.957Z,42.80
2023-01-11T20:37:50.062Z,45.20
2023-01-11T20:40:45.340Z,43.13
2023-01-11T20:43:29.912Z,63.00
2023-01-11T20:48:43.659Z,63.58
2023-01-11T20:54:28.295Z,50.97
2023-01-11T20:57:05.721Z,39.88
2023-01-11T20:59:39.396Z,54.53
2023-01-11T21:02:15.579Z,43.83
2023-01-11T21:07:20.842Z,97.18
2023-01-11T21:09:52.371Z,59.38
2023-01-11T21:12:26.325Z,56.47
2023-01-11T21:14:59.346Z,61.75
2023-01-11T21:17:32.911Z,65.65
2023-01-11T21:20:11.993Z,75.53
2023-01-11T21:22:44.430Z,55.92
2023-01-11T21:25:20.011Z,62.83
2023-01-11T21:28:03.093Z,65.70
2023-01-11T21:30:34.565Z,50.25
2023-01-11T21:33:04.608Z,53.17
2023-01-11T21:35:42.359Z,46.08
2023-01-11T21:38:19.461Z,76.47
2023-01-11T21:40:52.157Z,77.05
2023-01-11T21:43:38.228Z,91.57
2023-01-11T21:46:16.659Z,67.60
2023-01-11T21:48:47.982Z,66.55
2023-01-11T21:51:21.186Z,64.93
2023-01-11T22:12:33.680Z,78.97
2023-01-11T22:18:21.469Z,80.80
2023-01-11T22:20:51.227Z,81.57
2023-01-11T22:23:22.548Z,80.93
2023-01-11T22:25:52.707Z,105.22
2023-01-11T22:28:24.635Z,99.47
2023-01-11T22:30:54.776Z,95.70
2023-01-11T22:33:26.506Z,72.25
2023-01-11T22:35:57.748Z,72.72
2023-01-11T22:38:27.772Z,67.32
2023-01-11T22:41:01.485Z,58.40
2023-01-11T22:43:31.695Z,60.70
2023-01-11T22:46:04.141Z,57.38
2023-01-11T22:48:35.623Z,56.75
2023-01-11T22:51:12.137Z,87.25
2023-01-11T22:53:45.169Z,77.63
2023-01-11T22:56:19.865Z,102.50
2023-01-11T22:58:51.851Z,72.30
2023-01-11T23:01:28.567Z,91.55
2023-01-11T23:04:03.499Z,77.68
2023-01-11T23:06:36.525Z,62.75
2023-01-11T23:09:08.973Z,60.15
2023-01-11T23:11:58.817Z,54.90
2023-01-11T23:14:33.972Z,76.90
2023-01-11T23:17:08.888Z,78.05
2023-01-11T23:19:41.631Z,68.20
2023-01-11T23:22:11.729Z,86.28
2023-01-11T23:24:42.281Z,68.28
2023-01-11T23:27:13.051Z,94.38
2023-01-11T23:29:43.062Z,88.38
2023-01-11T23:32:12.867Z,81.28
2023-01-11T23:34:43.112Z,67.35
2023-01-11T23:53:16.184Z,54.75
2023-01-11T23:55:46.567Z,63.88
2023-01-11T23:58:16.426Z,67.15
